Phaethon — SVAM2 — position and weather

sailwx.info

Track history (hours):
 
Tides and Currents Weather Stations Pressure Air Temp Water Temp Dewpoint Dewpoint Depression Visibility Wind Speed Wind Dir Waves Ship Positions

Phaethon

Last reported at 2017-Jan-20 21:33 UTC. Time now 2017-Jan-20 22:12 UTC.
Position N 57°55' E 010°34'.

Length 274 m; draft 9.5 m.

Type: Tanker. MMSI: 240836000.

Date/timePositionNaut miles runAvg speedWind from/ knotsBaromVisibWave heightAir tempDewpointWater temp
2017-Jan-20 21:33N 57°55' E 010°34'1313.2
2017-Jan-20 20:33N 57°55' E 010°59'1313.3
2017-Jan-20 19:33N 57°46' E 011°18'1413.7
2017-Jan-20 18:33N 57°36' E 011°35'7 7.0
2017-Jan-20 17:33N 57°41' E 011°45'1 1.5
2017-Jan-20 16:33N 57°41' E 011°47'0 0.0
2017-Jan-20 15:34N 57°41' E 011°47'0 0.0
2017-Jan-20 14:31N 57°41' E 011°47'0 0.0
2017-Jan-20 13:34N 57°41' E 011°47'0 0.0
2017-Jan-20 12:31N 57°41' E 011°47'0 0.0
2017-Jan-20 11:34N 57°41' E 011°47'0 0.0
2017-Jan-20 10:31N 57°41' E 011°47'0 0.0
2017-Jan-20 09:34N 57°41' E 011°47'0 0.0
2017-Jan-20 08:31N 57°41' E 011°47'0 0.0
2017-Jan-20 07:31N 57°41' E 011°47'0 0.0
2017-Jan-20 06:34N 57°41' E 011°47'0 0.0
2017-Jan-20 05:31N 57°41' E 011°47'0 0.0
2017-Jan-20 04:34N 57°41' E 011°47'0 0.0
2017-Jan-20 03:31N 57°41' E 011°47'0 0.0
2017-Jan-20 02:34N 57°41' E 011°47'0 0.0
2017-Jan-20 01:31N 57°41' E 011°47'0 0.0
2017-Jan-20 00:34N 57°41' E 011°47'0 0.0
2017-Jan-19 23:31N 57°41' E 011°47'0 0.0
2017-Jan-19 22:34N 57°41' E 011°47'0 0.0
2017-Jan-19 21:31N 57°41' E 011°47'0 0.0
2017-Jan-19 20:31N 57°41' E 011°47'0 0.0
2017-Jan-19 19:34N 57°41' E 011°47'0 0.0
2017-Jan-19 18:31N 57°41' E 011°47'0 0.0
2017-Jan-19 17:34N 57°41' E 011°47'0 0.0
2017-Jan-19 16:31N 57°41' E 011°47'0 0.0
2017-Jan-19 15:31N 57°41' E 011°47'0 0.0
2017-Jan-19 14:34N 57°41' E 011°47'0 0.0
2017-Jan-19 13:31N 57°41' E 011°47'0 0.0
2017-Jan-19 12:34N 57°41' E 011°47'0 0.0
2017-Jan-19 11:31N 57°41' E 011°47'0 0.0
2017-Jan-19 10:34N 57°41' E 011°47'0 0.0
2017-Jan-19 09:31N 57°41' E 011°47'0 0.0
2017-Jan-19 08:31N 57°41' E 011°47'0 0.0
2017-Jan-19 07:31N 57°41' E 011°47'0 0.0
2017-Jan-19 06:34N 57°41' E 011°47'0 0.0
2017-Jan-19 05:34N 57°41' E 011°47'0 0.0
2017-Jan-19 04:31N 57°41' E 011°47'0 0.0
2017-Jan-19 03:31N 57°41' E 011°47'0 0.0
2017-Jan-19 02:34N 57°41' E 011°47'0 0.0
2017-Jan-19 01:31N 57°41' E 011°47'0 0.5
2017-Jan-19 00:33N 57°41' E 011°47'6 6.2
2017-Jan-18 23:34N 57°36' E 011°39'3 2.8
2017-Jan-18 22:32N 57°35' E 011°34'0 0.1
2017-Jan-18 21:32N 57°35' E 011°34'0 0.1
2017-Jan-18 20:32N 57°35' E 011°34'0 0.0
2017-Jan-18 19:32N 57°35' E 011°34'0 0.0
2017-Jan-18 18:32N 57°35' E 011°34'0 0.0
2017-Jan-18 17:32N 57°35' E 011°34'0 0.0
2017-Jan-18 16:32N 57°35' E 011°34'0 0.0
2017-Jan-18 15:32N 57°35' E 011°34'0 0.0
2017-Jan-18 14:32N 57°35' E 011°34'0 0.0
2017-Jan-18 13:32N 57°35' E 011°34'0 0.0
2017-Jan-18 12:32N 57°35' E 011°34'0 0.0
2017-Jan-18 11:32N 57°35' E 011°34'0 0.0
2017-Jan-18 10:32N 57°35' E 011°34'0 0.1
2017-Jan-18 09:33N 57°35' E 011°34'5 4.8
2017-Jan-18 08:33N 57°38' E 011°28'1211.6
2017-Jan-18 07:33N 57°47' E 011°12'1111.3
2017-Jan-18 06:33N 57°55' E 010°57'1111.3
2017-Jan-18 05:32N 57°59' E 010°37'1212.2
2017-Jan-18 04:32N 57°59' E 010°13'1212.4
2017-Jan-18 03:33N 57°60' E 009°51'37111.6
2017-Jan-16 19:30N 53°00' E 003°24'1514.2
2017-Jan-16 18:25N 52°46' E 003°12'1314.6
2017-Jan-16 17:33N 52°35' E 003°03'1514.8
2017-Jan-16 16:33N 52°22' E 002°52'1414.6
2017-Jan-16 15:33N 52°09' E 002°42'1413.6
2017-Jan-16 14:32N 51°55' E 002°37'1212.4
2017-Jan-16 13:32N 51°43' E 002°31'1212.1
2017-Jan-16 12:30N 51°33' E 002°19'1111.3
2017-Jan-16 11:33N 51°26' E 002°06'1110.7
2017-Jan-16 10:33N 51°18' E 001°55'1010.4
2017-Jan-16 09:33N 51°10' E 001°45'1110.5
2017-Jan-16 08:33N 51°02' E 001°34'1111.0
2017-Jan-16 07:33N 50°52' E 001°27'5611.3
2017-Jan-16 02:33N 50°21' E 000°12'1312.6
2017-Jan-16 01:32N 50°17' W 000°07'3114.6
2017-Jan-15 23:26N 50°09' W 000°54'1516.5
2017-Jan-15 22:32N 50°06' W 001°16'1616.8
2017-Jan-15 21:34N 50°02' W 001°41'1716.5
2017-Jan-15 20:33N 49°58' W 002°06'135 9.5
2017-Jan-15 06:15N 48°58' W 005°12'1013.2
2017-Jan-15 05:30N 48°53' W 005°25'  
2017-Jan-12 17:28N 38°51' W 011°09'5312.8
2017-Jan-12 13:18N 37°60' W 011°28'9812.6
2017-Jan-12 05:33N 36°26' W 012°02'  
Track history (hours):
 
Tides and Currents Weather Stations Pressure Air Temp Water Temp Dewpoint Dewpoint Depression Visibility Wind Speed Wind Dir Waves Ship Positions

Phaethon

Last reported at 2017-Jan-20 21:33 UTC. Time now 2017-Jan-20 22:12 UTC.
Position N 57°55' E 010°34'.

Length 274 m; draft 9.5 m.

Type: Tanker. MMSI: 240836000.

Date/timePositionNaut miles runAvg speedWind from/ knotsBaromVisibWave heightAir tempDewpointWater temp
2017-Jan-20 21:33N 57°55' E 010°34'1313.2
2017-Jan-20 20:33N 57°55' E 010°59'1313.3
2017-Jan-20 19:33N 57°46' E 011°18'1413.7
2017-Jan-20 18:33N 57°36' E 011°35'7 7.0
2017-Jan-20 17:33N 57°41' E 011°45'1 1.5
2017-Jan-20 16:33N 57°41' E 011°47'0 0.0
2017-Jan-20 15:34N 57°41' E 011°47'0 0.0
2017-Jan-20 14:31N 57°41' E 011°47'0 0.0
2017-Jan-20 13:34N 57°41' E 011°47'0 0.0
2017-Jan-20 12:31N 57°41' E 011°47'0 0.0
2017-Jan-20 11:34N 57°41' E 011°47'0 0.0
2017-Jan-20 10:31N 57°41' E 011°47'0 0.0
2017-Jan-20 09:34N 57°41' E 011°47'0 0.0
2017-Jan-20 08:31N 57°41' E 011°47'0 0.0
2017-Jan-20 07:31N 57°41' E 011°47'0 0.0
2017-Jan-20 06:34N 57°41' E 011°47'0 0.0
2017-Jan-20 05:31N 57°41' E 011°47'0 0.0
2017-Jan-20 04:34N 57°41' E 011°47'0 0.0
2017-Jan-20 03:31N 57°41' E 011°47'0 0.0
2017-Jan-20 02:34N 57°41' E 011°47'0 0.0
2017-Jan-20 01:31N 57°41' E 011°47'0 0.0
2017-Jan-20 00:34N 57°41' E 011°47'0 0.0
2017-Jan-19 23:31N 57°41' E 011°47'0 0.0
2017-Jan-19 22:34N 57°41' E 011°47'0 0.0
2017-Jan-19 21:31N 57°41' E 011°47'0 0.0
2017-Jan-19 20:31N 57°41' E 011°47'0 0.0
2017-Jan-19 19:34N 57°41' E 011°47'0 0.0
2017-Jan-19 18:31N 57°41' E 011°47'0 0.0
2017-Jan-19 17:34N 57°41' E 011°47'0 0.0
2017-Jan-19 16:31N 57°41' E 011°47'0 0.0
2017-Jan-19 15:31N 57°41' E 011°47'0 0.0
2017-Jan-19 14:34N 57°41' E 011°47'0 0.0
2017-Jan-19 13:31N 57°41' E 011°47'0 0.0
2017-Jan-19 12:34N 57°41' E 011°47'0 0.0
2017-Jan-19 11:31N 57°41' E 011°47'0 0.0
2017-Jan-19 10:34N 57°41' E 011°47'0 0.0
2017-Jan-19 09:31N 57°41' E 011°47'0 0.0
2017-Jan-19 08:31N 57°41' E 011°47'0 0.0
2017-Jan-19 07:31N 57°41' E 011°47'0 0.0
2017-Jan-19 06:34N 57°41' E 011°47'0 0.0
2017-Jan-19 05:34N 57°41' E 011°47'0 0.0
2017-Jan-19 04:31N 57°41' E 011°47'0 0.0
2017-Jan-19 03:31N 57°41' E 011°47'0 0.0
2017-Jan-19 02:34N 57°41' E 011°47'0 0.0
2017-Jan-19 01:31N 57°41' E 011°47'0 0.5
2017-Jan-19 00:33N 57°41' E 011°47'6 6.2
2017-Jan-18 23:34N 57°36' E 011°39'3 2.8
2017-Jan-18 22:32N 57°35' E 011°34'0 0.1
2017-Jan-18 21:32N 57°35' E 011°34'0 0.1
2017-Jan-18 20:32N 57°35' E 011°34'0 0.0
2017-Jan-18 19:32N 57°35' E 011°34'0 0.0
2017-Jan-18 18:32N 57°35' E 011°34'0 0.0
2017-Jan-18 17:32N 57°35' E 011°34'0 0.0
2017-Jan-18 16:32N 57°35' E 011°34'0 0.0
2017-Jan-18 15:32N 57°35' E 011°34'0 0.0
2017-Jan-18 14:32N 57°35' E 011°34'0 0.0
2017-Jan-18 13:32N 57°35' E 011°34'0 0.0
2017-Jan-18 12:32N 57°35' E 011°34'0 0.0
2017-Jan-18 11:32N 57°35' E 011°34'0 0.0
2017-Jan-18 10:32N 57°35' E 011°34'0 0.1
2017-Jan-18 09:33N 57°35' E 011°34'5 4.8
2017-Jan-18 08:33N 57°38' E 011°28'1211.6
2017-Jan-18 07:33N 57°47' E 011°12'1111.3
2017-Jan-18 06:33N 57°55' E 010°57'1111.3
2017-Jan-18 05:32N 57°59' E 010°37'1212.2
2017-Jan-18 04:32N 57°59' E 010°13'1212.4
2017-Jan-18 03:33N 57°60' E 009°51'37111.6
2017-Jan-16 19:30N 53°00' E 003°24'1514.2
2017-Jan-16 18:25N 52°46' E 003°12'1314.6
2017-Jan-16 17:33N 52°35' E 003°03'1514.8
2017-Jan-16 16:33N 52°22' E 002°52'1414.6
2017-Jan-16 15:33N 52°09' E 002°42'1413.6
2017-Jan-16 14:32N 51°55' E 002°37'1212.4
2017-Jan-16 13:32N 51°43' E 002°31'1212.1
2017-Jan-16 12:30N 51°33' E 002°19'1111.3
2017-Jan-16 11:33N 51°26' E 002°06'1110.7
2017-Jan-16 10:33N 51°18' E 001°55'1010.4
2017-Jan-16 09:33N 51°10' E 001°45'1110.5
2017-Jan-16 08:33N 51°02' E 001°34'1111.0
2017-Jan-16 07:33N 50°52' E 001°27'5611.3
2017-Jan-16 02:33N 50°21' E 000°12'1312.6
2017-Jan-16 01:32N 50°17' W 000°07'3114.6
2017-Jan-15 23:26N 50°09' W 000°54'1516.5
2017-Jan-15 22:32N 50°06' W 001°16'1616.8
2017-Jan-15 21:34N 50°02' W 001°41'1716.5
2017-Jan-15 20:33N 49°58' W 002°06'135 9.5
2017-Jan-15 06:15N 48°58' W 005°12'1013.2
2017-Jan-15 05:30N 48°53' W 005°25'  
2017-Jan-12 17:28N 38°51' W 011°09'5312.8
2017-Jan-12 13:18N 37°60' W 011°28'9812.6
2017-Jan-12 05:33N 36°26' W 012°02'  

Dump ship's entire track history